Other Surface Observations
Issued by NWS Missoula, MT

Home | Current Version | Previous Version | Text Only | Print | Product List | Glossary On
Versions: 1 2 3 4 5 6 7 8 9 10 11 12 13 14 15 16 17 18 19 20 21 22 23 24 25 26 27 28 29 30 31 32 33 34 35 36 37 38 39 40 41 42 43 44 45 46 47 48 49 50
090
SXUS55 KMSO 241744
OSOMSO
MONTANA AWOS SUMMARY
NATIONAL WEATHER SERVICE MISSOULA MT
1143 AM MDT SUN JUL 24 2016

Montana AWOS Reports

LAUREL      |K6S8 241735Z AUTO 00000KT 40SM 26/08 A3010 RMK AO1 T02610083
TWIN BRIDGES|K7S1 241735Z AUTO 17004KT 40SM 22/04 A3016 RMK AO1 T02170039
ROUNDUP     |KRPX 241735Z AUTO 00000KT 40SM 26/05 A3002 RMK AO1 T02560050




USA.gov is the U.S. government's official web portal to all federal, state and local government web resources and services.